sensor_id;sensor_type;location;lat;lon;timestamp;P1;durP1;ratioP1;P2;durP2;ratioP2
8230;SDS011;4156;50.908;6.974;2023-05-07T00:01:41;3.20;;;2.80;;
8230;SDS011;4156;50.908;6.974;2023-05-07T00:04:07;5.47;;;3.10;;
8230;SDS011;4156;50.908;6.974;2023-05-07T00:06:33;4.27;;;3.33;;
8230;SDS011;4156;50.908;6.974;2023-05-07T00:08:58;3.83;;;3.43;;
8230;SDS011;4156;50.908;6.974;2023-05-07T00:11:25;5.10;;;3.20;;
8230;SDS011;4156;50.908;6.974;2023-05-07T00:13:51;4.43;;;2.67;;
8230;SDS011;4156;50.908;6.974;2023-05-07T00:16:17;3.20;;;2.53;;
8230;SDS011;4156;50.908;6.974;2023-05-07T00:18:42;3.47;;;2.70;;
8230;SDS011;4156;50.908;6.974;2023-05-07T00:21:08;3.80;;;2.60;;
8230;SDS011;4156;50.908;6.974;2023-05-07T00:23:33;4.30;;;2.80;;
8230;SDS011;4156;50.908;6.974;2023-05-07T00:25:59;3.77;;;2.80;;
8230;SDS011;4156;50.908;6.974;2023-05-07T00:28:25;3.20;;;2.50;;
8230;SDS011;4156;50.908;6.974;2023-05-07T00:30:50;3.07;;;2.60;;
8230;SDS011;4156;50.908;6.974;2023-05-07T00:33:16;3.80;;;2.90;;
8230;SDS011;4156;50.908;6.974;2023-05-07T00:35:42;3.60;;;2.43;;
8230;SDS011;4156;50.908;6.974;2023-05-07T00:38:07;3.10;;;2.60;;
8230;SDS011;4156;50.908;6.974;2023-05-07T00:40:33;3.57;;;2.93;;
8230;SDS011;4156;50.908;6.974;2023-05-07T00:42:58;5.93;;;3.03;;
8230;SDS011;4156;50.908;6.974;2023-05-07T00:45:28;4.23;;;2.90;;
8230;SDS011;4156;50.908;6.974;2023-05-07T00:47:55;3.60;;;2.67;;
8230;SDS011;4156;50.908;6.974;2023-05-07T00:50:22;3.73;;;2.87;;
8230;SDS011;4156;50.908;6.974;2023-05-07T00:52:48;3.00;;;2.70;;
8230;SDS011;4156;50.908;6.974;2023-05-07T00:55:13;3.60;;;3.03;;
8230;SDS011;4156;50.908;6.974;2023-05-07T00:57:40;4.57;;;2.80;;
8230;SDS011;4156;50.908;6.974;2023-05-07T01:00:06;4.87;;;3.17;;
8230;SDS011;4156;50.908;6.974;2023-05-07T01:02:37;3.33;;;3.03;;
8230;SDS011;4156;50.908;6.974;2023-05-07T01:05:03;3.87;;;3.00;;
8230;SDS011;4156;50.908;6.974;2023-05-07T01:07:31;3.87;;;2.83;;
8230;SDS011;4156;50.908;6.974;2023-05-07T01:09:58;3.63;;;2.27;;
8230;SDS011;4156;50.908;6.974;2023-05-07T01:12:23;4.17;;;2.63;;
8230;SDS011;4156;50.908;6.974;2023-05-07T01:14:50;4.23;;;3.03;;
8230;SDS011;4156;50.908;6.974;2023-05-07T01:17:16;3.17;;;2.30;;
8230;SDS011;4156;50.908;6.974;2023-05-07T01:19:42;3.17;;;2.50;;
8230;SDS011;4156;50.908;6.974;2023-05-07T01:22:08;5.13;;;2.40;;
8230;SDS011;4156;50.908;6.974;2023-05-07T01:24:36;2.70;;;2.33;;
8230;SDS011;4156;50.908;6.974;2023-05-07T01:27:02;3.27;;;2.60;;
8230;SDS011;4156;50.908;6.974;2023-05-07T01:29:28;2.90;;;2.30;;
8230;SDS011;4156;50.908;6.974;2023-05-07T01:31:54;2.23;;;2.03;;
8230;SDS011;4156;50.908;6.974;2023-05-07T01:34:24;3.00;;;2.70;;
8230;SDS011;4156;50.908;6.974;2023-05-07T01:36:52;2.90;;;2.57;;
8230;SDS011;4156;50.908;6.974;2023-05-07T01:39:18;4.07;;;2.53;;
8230;SDS011;4156;50.908;6.974;2023-05-07T01:41:44;3.43;;;2.53;;
8230;SDS011;4156;50.908;6.974;2023-05-07T01:44:10;2.63;;;2.30;;
8230;SDS011;4156;50.908;6.974;2023-05-07T01:46:38;2.53;;;2.30;;
8230;SDS011;4156;50.908;6.974;2023-05-07T01:49:03;3.03;;;2.53;;
8230;SDS011;4156;50.908;6.974;2023-05-07T01:51:29;5.37;;;2.40;;
8230;SDS011;4156;50.908;6.974;2023-05-07T01:53:56;3.23;;;2.57;;
8230;SDS011;4156;50.908;6.974;2023-05-07T01:56:22;3.00;;;2.70;;
8230;SDS011;4156;50.908;6.974;2023-05-07T01:58:49;3.07;;;2.50;;
8230;SDS011;4156;50.908;6.974;2023-05-07T02:01:16;3.10;;;2.47;;
8230;SDS011;4156;50.908;6.974;2023-05-07T02:03:41;4.17;;;2.60;;
8230;SDS011;4156;50.908;6.974;2023-05-07T02:06:07;3.97;;;2.80;;
8230;SDS011;4156;50.908;6.974;2023-05-07T02:08:32;3.00;;;2.40;;
8230;SDS011;4156;50.908;6.974;2023-05-07T02:10:58;5.37;;;2.60;;
8230;SDS011;4156;50.908;6.974;2023-05-07T02:13:23;3.00;;;2.30;;
8230;SDS011;4156;50.908;6.974;2023-05-07T02:15:50;2.67;;;2.00;;
8230;SDS011;4156;50.908;6.974;2023-05-07T02:18:16;2.87;;;2.37;;
8230;SDS011;4156;50.908;6.974;2023-05-07T02:20:42;2.70;;;2.50;;
8230;SDS011;4156;50.908;6.974;2023-05-07T02:23:07;2.90;;;2.60;;
8230;SDS011;4156;50.908;6.974;2023-05-07T02:25:33;2.70;;;2.30;;
8230;SDS011;4156;50.908;6.974;2023-05-07T02:27:59;3.07;;;2.40;;
8230;SDS011;4156;50.908;6.974;2023-05-07T02:30:25;2.40;;;2.17;;
8230;SDS011;4156;50.908;6.974;2023-05-07T02:32:50;2.67;;;2.27;;
8230;SDS011;4156;50.908;6.974;2023-05-07T02:35:16;2.37;;;2.10;;
8230;SDS011;4156;50.908;6.974;2023-05-07T02:37:42;2.40;;;2.20;;
8230;SDS011;4156;50.908;6.974;2023-05-07T02:40:08;3.77;;;2.47;;
8230;SDS011;4156;50.908;6.974;2023-05-07T02:42:34;3.50;;;2.70;;
8230;SDS011;4156;50.908;6.974;2023-05-07T02:45:00;2.80;;;2.43;;
8230;SDS011;4156;50.908;6.974;2023-05-07T02:47:25;3.13;;;2.40;;
8230;SDS011;4156;50.908;6.974;2023-05-07T02:49:54;3.00;;;2.60;;
8230;SDS011;4156;50.908;6.974;2023-05-07T02:52:20;5.20;;;2.90;;
8230;SDS011;4156;50.908;6.974;2023-05-07T02:54:46;3.17;;;2.53;;
8230;SDS011;4156;50.908;6.974;2023-05-07T02:57:11;4.43;;;2.20;;
8230;SDS011;4156;50.908;6.974;2023-05-07T02:59:37;3.17;;;2.13;;
8230;SDS011;4156;50.908;6.974;2023-05-07T03:02:02;3.30;;;2.20;;
8230;SDS011;4156;50.908;6.974;2023-05-07T03:04:28;2.67;;;2.20;;
8230;SDS011;4156;50.908;6.974;2023-05-07T03:06:53;4.00;;;2.80;;
8230;SDS011;4156;50.908;6.974;2023-05-07T03:09:19;2.83;;;2.23;;
8230;SDS011;4156;50.908;6.974;2023-05-07T03:11:45;3.10;;;2.30;;
8230;SDS011;4156;50.908;6.974;2023-05-07T03:14:10;5.07;;;2.57;;
8230;SDS011;4156;50.908;6.974;2023-05-07T03:16:37;2.53;;;2.33;;
8230;SDS011;4156;50.908;6.974;2023-05-07T03:19:03;2.97;;;2.50;;
8230;SDS011;4156;50.908;6.974;2023-05-07T03:21:29;3.00;;;2.37;;
8230;SDS011;4156;50.908;6.974;2023-05-07T03:23:55;2.70;;;2.30;;
8230;SDS011;4156;50.908;6.974;2023-05-07T03:26:21;3.47;;;2.60;;
8230;SDS011;4156;50.908;6.974;2023-05-07T03:28:47;3.97;;;2.40;;
8230;SDS011;4156;50.908;6.974;2023-05-07T03:31:12;3.10;;;2.80;;
8230;SDS011;4156;50.908;6.974;2023-05-07T03:33:47;3.23;;;2.27;;
8230;SDS011;4156;50.908;6.974;2023-05-07T03:36:21;3.73;;;2.27;;
8230;SDS011;4156;50.908;6.974;2023-05-07T03:38:48;2.60;;;2.40;;
8230;SDS011;4156;50.908;6.974;2023-05-07T03:41:14;3.70;;;2.03;;
8230;SDS011;4156;50.908;6.974;2023-05-07T03:43:40;4.10;;;2.57;;
8230;SDS011;4156;50.908;6.974;2023-05-07T03:46:06;2.87;;;2.20;;
8230;SDS011;4156;50.908;6.974;2023-05-07T03:48:31;5.53;;;2.90;;
8230;SDS011;4156;50.908;6.974;2023-05-07T03:50:57;2.50;;;2.30;;
8230;SDS011;4156;50.908;6.974;2023-05-07T03:53:23;4.73;;;2.37;;
8230;SDS011;4156;50.908;6.974;2023-05-07T03:55:48;2.80;;;2.50;;
8230;SDS011;4156;50.908;6.974;2023-05-07T03:58:14;2.57;;;2.37;;
8230;SDS011;4156;50.908;6.974;2023-05-07T04:00:40;3.33;;;2.50;;
8230;SDS011;4156;50.908;6.974;2023-05-07T04:03:06;3.13;;;2.43;;
8230;SDS011;4156;50.908;6.974;2023-05-07T04:05:31;2.57;;;2.37;;
8230;SDS011;4156;50.908;6.974;2023-05-07T04:07:57;3.17;;;2.20;;
8230;SDS011;4156;50.908;6.974;2023-05-07T04:10:23;2.50;;;2.30;;
8230;SDS011;4156;50.908;6.974;2023-05-07T04:12:49;6.13;;;2.40;;
8230;SDS011;4156;50.908;6.974;2023-05-07T04:15:14;4.43;;;2.50;;
8230;SDS011;4156;50.908;6.974;2023-05-07T04:17:40;4.23;;;2.60;;
8230;SDS011;4156;50.908;6.974;2023-05-07T04:20:08;3.47;;;2.50;;
8230;SDS011;4156;50.908;6.974;2023-05-07T04:22:35;6.23;;;3.07;;
8230;SDS011;4156;50.908;6.974;2023-05-07T04:25:01;3.60;;;2.40;;
8230;SDS011;4156;50.908;6.974;2023-05-07T04:27:27;4.50;;;2.33;;
8230;SDS011;4156;50.908;6.974;2023-05-07T04:29:53;3.17;;;2.50;;
8230;SDS011;4156;50.908;6.974;2023-05-07T04:32:20;3.23;;;2.17;;
8230;SDS011;4156;50.908;6.974;2023-05-07T04:34:46;3.33;;;2.40;;
8230;SDS011;4156;50.908;6.974;2023-05-07T04:37:11;3.40;;;2.50;;
8230;SDS011;4156;50.908;6.974;2023-05-07T04:39:37;5.13;;;2.77;;
8230;SDS011;4156;50.908;6.974;2023-05-07T04:42:03;7.73;;;3.10;;
8230;SDS011;4156;50.908;6.974;2023-05-07T04:44:28;4.43;;;2.30;;
8230;SDS011;4156;50.908;6.974;2023-05-07T04:46:55;5.17;;;2.33;;
8230;SDS011;4156;50.908;6.974;2023-05-07T04:49:21;2.40;;;2.00;;
8230;SDS011;4156;50.908;6.974;2023-05-07T04:51:47;2.50;;;2.30;;
8230;SDS011;4156;50.908;6.974;2023-05-07T04:54:12;4.27;;;2.50;;
8230;SDS011;4156;50.908;6.974;2023-05-07T04:56:38;3.07;;;2.57;;
8230;SDS011;4156;50.908;6.974;2023-05-07T04:59:03;3.30;;;2.70;;
8230;SDS011;4156;50.908;6.974;2023-05-07T05:01:29;2.93;;;2.50;;
8230;SDS011;4156;50.908;6.974;2023-05-07T05:03:55;2.87;;;2.40;;
8230;SDS011;4156;50.908;6.974;2023-05-07T05:06:20;4.13;;;2.47;;
8230;SDS011;4156;50.908;6.974;2023-05-07T05:08:46;2.40;;;2.10;;
8230;SDS011;4156;50.908;6.974;2023-05-07T05:11:11;4.13;;;3.10;;
8230;SDS011;4156;50.908;6.974;2023-05-07T05:13:37;4.50;;;2.10;;
8230;SDS011;4156;50.908;6.974;2023-05-07T05:16:02;2.80;;;2.30;;
8230;SDS011;4156;50.908;6.974;2023-05-07T05:18:28;2.60;;;2.40;;
8230;SDS011;4156;50.908;6.974;2023-05-07T05:20:53;5.40;;;2.50;;
8230;SDS011;4156;50.908;6.974;2023-05-07T05:23:19;2.67;;;2.20;;
8230;SDS011;4156;50.908;6.974;2023-05-07T05:25:45;4.40;;;2.53;;
8230;SDS011;4156;50.908;6.974;2023-05-07T05:28:10;3.03;;;2.10;;
8230;SDS011;4156;50.908;6.974;2023-05-07T05:30:36;5.90;;;2.50;;
8230;SDS011;4156;50.908;6.974;2023-05-07T05:33:01;2.70;;;2.27;;
8230;SDS011;4156;50.908;6.974;2023-05-07T05:35:27;2.67;;;2.00;;
8230;SDS011;4156;50.908;6.974;2023-05-07T05:37:53;3.30;;;2.00;;
8230;SDS011;4156;50.908;6.974;2023-05-07T05:40:18;3.33;;;2.50;;
8230;SDS011;4156;50.908;6.974;2023-05-07T05:42:44;2.50;;;2.23;;
8230;SDS011;4156;50.908;6.974;2023-05-07T05:45:09;3.10;;;2.43;;
8230;SDS011;4156;50.908;6.974;2023-05-07T05:47:35;3.03;;;1.90;;
8230;SDS011;4156;50.908;6.974;2023-05-07T05:50:00;2.57;;;2.20;;
8230;SDS011;4156;50.908;6.974;2023-05-07T05:52:26;4.20;;;2.50;;
8230;SDS011;4156;50.908;6.974;2023-05-07T05:54:51;5.17;;;2.47;;
8230;SDS011;4156;50.908;6.974;2023-05-07T05:57:18;3.13;;;2.20;;
8230;SDS011;4156;50.908;6.974;2023-05-07T05:59:43;2.60;;;2.33;;
8230;SDS011;4156;50.908;6.974;2023-05-07T06:02:09;1.77;;;1.67;;
8230;SDS011;4156;50.908;6.974;2023-05-07T06:04:35;3.33;;;2.13;;
8230;SDS011;4156;50.908;6.974;2023-05-07T06:07:00;3.00;;;2.07;;
8230;SDS011;4156;50.908;6.974;2023-05-07T06:09:26;3.00;;;2.10;;
8230;SDS011;4156;50.908;6.974;2023-05-07T06:11:51;3.23;;;2.00;;
8230;SDS011;4156;50.908;6.974;2023-05-07T06:14:17;2.30;;;2.10;;
8230;SDS011;4156;50.908;6.974;2023-05-07T06:16:43;2.73;;;2.17;;
8230;SDS011;4156;50.908;6.974;2023-05-07T06:19:09;2.80;;;2.10;;
8230;SDS011;4156;50.908;6.974;2023-05-07T06:21:34;2.90;;;2.20;;
8230;SDS011;4156;50.908;6.974;2023-05-07T06:24:00;2.80;;;2.00;;
8230;SDS011;4156;50.908;6.974;2023-05-07T06:26:25;2.60;;;2.00;;
8230;SDS011;4156;50.908;6.974;2023-05-07T06:28:51;2.30;;;2.10;;
8230;SDS011;4156;50.908;6.974;2023-05-07T06:31:17;2.80;;;1.90;;
8230;SDS011;4156;50.908;6.974;2023-05-07T06:33:45;3.60;;;2.00;;
8230;SDS011;4156;50.908;6.974;2023-05-07T06:36:11;2.47;;;2.07;;
8230;SDS011;4156;50.908;6.974;2023-05-07T06:38:37;2.83;;;2.17;;
8230;SDS011;4156;50.908;6.974;2023-05-07T06:41:03;3.13;;;2.10;;
8230;SDS011;4156;50.908;6.974;2023-05-07T06:43:28;2.43;;;2.07;;
8230;SDS011;4156;50.908;6.974;2023-05-07T06:45:54;2.60;;;2.40;;
8230;SDS011;4156;50.908;6.974;2023-05-07T06:48:19;3.80;;;2.30;;
8230;SDS011;4156;50.908;6.974;2023-05-07T06:50:45;3.20;;;2.00;;
8230;SDS011;4156;50.908;6.974;2023-05-07T06:53:10;2.60;;;2.00;;
8230;SDS011;4156;50.908;6.974;2023-05-07T06:55:36;2.60;;;2.10;;
8230;SDS011;4156;50.908;6.974;2023-05-07T06:58:03;2.70;;;2.10;;
8230;SDS011;4156;50.908;6.974;2023-05-07T07:00:28;2.03;;;1.80;;
8230;SDS011;4156;50.908;6.974;2023-05-07T07:02:54;3.07;;;2.10;;
8230;SDS011;4156;50.908;6.974;2023-05-07T07:05:20;2.60;;;2.23;;
8230;SDS011;4156;50.908;6.974;2023-05-07T07:07:46;2.97;;;1.90;;
8230;SDS011;4156;50.908;6.974;2023-05-07T07:10:18;3.03;;;1.90;;
8230;SDS011;4156;50.908;6.974;2023-05-07T07:12:47;2.27;;;2.00;;
8230;SDS011;4156;50.908;6.974;2023-05-07T07:15:14;2.80;;;2.20;;
8230;SDS011;4156;50.908;6.974;2023-05-07T07:17:39;2.67;;;2.10;;
8230;SDS011;4156;50.908;6.974;2023-05-07T07:20:05;2.73;;;1.90;;
8230;SDS011;4156;50.908;6.974;2023-05-07T07:22:31;2.83;;;2.10;;
8230;SDS011;4156;50.908;6.974;2023-05-07T07:24:57;2.40;;;1.93;;
8230;SDS011;4156;50.908;6.974;2023-05-07T07:27:22;2.53;;;2.08;;
8230;SDS011;4156;50.908;6.974;2023-05-07T07:29:48;3.13;;;2.20;;
8230;SDS011;4156;50.908;6.974;2023-05-07T07:32:14;4.90;;;2.50;;
8230;SDS011;4156;50.908;6.974;2023-05-07T07:34:39;2.10;;;1.90;;
8230;SDS011;4156;50.908;6.974;2023-05-07T07:37:05;2.20;;;1.80;;
8230;SDS011;4156;50.908;6.974;2023-05-07T07:39:34;2.37;;;1.87;;
8230;SDS011;4156;50.908;6.974;2023-05-07T07:42:02;4.23;;;2.10;;
8230;SDS011;4156;50.908;6.974;2023-05-07T07:44:28;2.23;;;1.87;;
8230;SDS011;4156;50.908;6.974;2023-05-07T07:46:53;2.43;;;1.90;;
8230;SDS011;4156;50.908;6.974;2023-05-07T07:49:19;2.73;;;2.07;;
8230;SDS011;4156;50.908;6.974;2023-05-07T07:51:44;3.23;;;2.10;;
8230;SDS011;4156;50.908;6.974;2023-05-07T07:54:10;2.17;;;1.97;;
8230;SDS011;4156;50.908;6.974;2023-05-07T07:56:36;3.73;;;1.90;;
8230;SDS011;4156;50.908;6.974;2023-05-07T07:59:01;1.80;;;1.70;;
8230;SDS011;4156;50.908;6.974;2023-05-07T08:01:29;2.23;;;1.97;;
8230;SDS011;4156;50.908;6.974;2023-05-07T08:03:55;2.57;;;1.83;;
8230;SDS011;4156;50.908;6.974;2023-05-07T08:06:20;2.03;;;1.60;;
8230;SDS011;4156;50.908;6.974;2023-05-07T08:08:46;2.40;;;1.80;;
8230;SDS011;4156;50.908;6.974;2023-05-07T08:11:11;2.00;;;1.70;;
8230;SDS011;4156;50.908;6.974;2023-05-07T08:13:37;3.03;;;1.83;;
8230;SDS011;4156;50.908;6.974;2023-05-07T08:16:03;3.03;;;2.10;;
8230;SDS011;4156;50.908;6.974;2023-05-07T08:18:29;2.37;;;1.80;;
8230;SDS011;4156;50.908;6.974;2023-05-07T08:20:55;2.53;;;1.93;;
8230;SDS011;4156;50.908;6.974;2023-05-07T08:23:21;2.67;;;2.07;;
8230;SDS011;4156;50.908;6.974;2023-05-07T08:25:47;2.93;;;2.20;;
8230;SDS011;4156;50.908;6.974;2023-05-07T08:28:14;2.50;;;1.90;;
8230;SDS011;4156;50.908;6.974;2023-05-07T08:30:40;2.60;;;2.00;;
8230;SDS011;4156;50.908;6.974;2023-05-07T08:33:05;4.30;;;1.97;;
8230;SDS011;4156;50.908;6.974;2023-05-07T08:35:31;2.03;;;1.83;;
8230;SDS011;4156;50.908;6.974;2023-05-07T08:37:57;2.03;;;1.83;;
8230;SDS011;4156;50.908;6.974;2023-05-07T08:40:23;3.90;;;2.20;;
8230;SDS011;4156;50.908;6.974;2023-05-07T08:42:51;1.67;;;1.57;;
8230;SDS011;4156;50.908;6.974;2023-05-07T08:45:18;2.10;;;1.90;;
8230;SDS011;4156;50.908;6.974;2023-05-07T08:47:46;2.13;;;1.83;;
8230;SDS011;4156;50.908;6.974;2023-05-07T08:50:15;2.23;;;1.80;;
8230;SDS011;4156;50.908;6.974;2023-05-07T08:52:40;1.70;;;1.60;;
8230;SDS011;4156;50.908;6.974;2023-05-07T08:55:07;1.70;;;1.60;;
8230;SDS011;4156;50.908;6.974;2023-05-07T08:57:35;2.43;;;1.97;;
8230;SDS011;4156;50.908;6.974;2023-05-07T09:00:01;2.17;;;1.80;;
8230;SDS011;4156;50.908;6.974;2023-05-07T09:02:28;2.00;;;1.70;;
8230;SDS011;4156;50.908;6.974;2023-05-07T09:04:53;4.10;;;1.97;;
8230;SDS011;4156;50.908;6.974;2023-05-07T09:07:19;2.17;;;1.80;;
8230;SDS011;4156;50.908;6.974;2023-05-07T09:09:45;2.10;;;1.90;;
8230;SDS011;4156;50.908;6.974;2023-05-07T09:12:11;3.10;;;1.90;;
8230;SDS011;4156;50.908;6.974;2023-05-07T09:14:37;2.17;;;1.70;;
8230;SDS011;4156;50.908;6.974;2023-05-07T09:17:04;2.70;;;1.87;;
8230;SDS011;4156;50.908;6.974;2023-05-07T09:19:29;2.67;;;2.10;;
8230;SDS011;4156;50.908;6.974;2023-05-07T09:22:02;2.83;;;1.80;;
8230;SDS011;4156;50.908;6.974;2023-05-07T09:24:29;1.80;;;1.70;;
8230;SDS011;4156;50.908;6.974;2023-05-07T09:26:58;1.60;;;1.50;;
8230;SDS011;4156;50.908;6.974;2023-05-07T09:29:26;2.00;;;1.80;;
8230;SDS011;4156;50.908;6.974;2023-05-07T09:31:53;2.70;;;2.10;;
8230;SDS011;4156;50.908;6.974;2023-05-07T09:34:19;2.00;;;1.80;;
8230;SDS011;4156;50.908;6.974;2023-05-07T09:36:45;2.67;;;1.80;;
8230;SDS011;4156;50.908;6.974;2023-05-07T09:39:10;2.33;;;1.97;;
8230;SDS011;4156;50.908;6.974;2023-05-07T09:41:45;2.57;;;1.80;;
8230;SDS011;4156;50.908;6.974;2023-05-07T09:44:12;2.67;;;1.90;;
8230;SDS011;4156;50.908;6.974;2023-05-07T09:46:39;2.13;;;1.63;;
8230;SDS011;4156;50.908;6.974;2023-05-07T09:49:08;2.13;;;1.93;;
8230;SDS011;4156;50.908;6.974;2023-05-07T09:51:45;2.90;;;2.00;;
8230;SDS011;4156;50.908;6.974;2023-05-07T09:54:14;2.00;;;1.80;;
8230;SDS011;4156;50.908;6.974;2023-05-07T09:56:40;2.37;;;1.57;;
8230;SDS011;4156;50.908;6.974;2023-05-07T09:59:07;1.90;;;1.70;;
8230;SDS011;4156;50.908;6.974;2023-05-07T10:01:35;2.00;;;1.80;;
8230;SDS011;4156;50.908;6.974;2023-05-07T10:04:01;1.83;;;1.60;;
8230;SDS011;4156;50.908;6.974;2023-05-07T10:06:29;2.83;;;1.90;;
8230;SDS011;4156;50.908;6.974;2023-05-07T10:08:55;2.00;;;1.80;;
8230;SDS011;4156;50.908;6.974;2023-05-07T10:11:21;2.30;;;1.80;;
8230;SDS011;4156;50.908;6.974;2023-05-07T10:13:47;2.20;;;1.90;;
8230;SDS011;4156;50.908;6.974;2023-05-07T10:16:13;1.90;;;1.77;;
8230;SDS011;4156;50.908;6.974;2023-05-07T10:18:40;2.43;;;1.60;;
8230;SDS011;4156;50.908;6.974;2023-05-07T10:23:33;2.03;;;1.80;;
8230;SDS011;4156;50.908;6.974;2023-05-07T10:26:00;1.97;;;1.77;;
8230;SDS011;4156;50.908;6.974;2023-05-07T10:28:29;2.00;;;1.80;;
8230;SDS011;4156;50.908;6.974;2023-05-07T10:33:52;2.10;;;1.80;;
8230;SDS011;4156;50.908;6.974;2023-05-07T10:36:21;2.50;;;2.03;;
8230;SDS011;4156;50.908;6.974;2023-05-07T10:38:47;2.10;;;1.70;;
8230;SDS011;4156;50.908;6.974;2023-05-07T10:41:12;2.43;;;1.90;;
8230;SDS011;4156;50.908;6.974;2023-05-07T10:43:41;1.97;;;1.67;;
8230;SDS011;4156;50.908;6.974;2023-05-07T10:46:13;2.80;;;2.00;;
8230;SDS011;4156;50.908;6.974;2023-05-07T10:51:31;2.23;;;1.83;;
8230;SDS011;4156;50.908;6.974;2023-05-07T10:54:17;1.77;;;1.63;;
8230;SDS011;4156;50.908;6.974;2023-05-07T10:56:43;2.73;;;1.90;;
8230;SDS011;4156;50.908;6.974;2023-05-07T11:04:19;1.60;;;1.50;;
8230;SDS011;4156;50.908;6.974;2023-05-07T11:13:03;1.90;;;1.60;;
8230;SDS011;4156;50.908;6.974;2023-05-07T11:15:07;2.10;;;1.70;;
8230;SDS011;4156;50.908;6.974;2023-05-07T11:17:55;4.90;;;1.70;;
8230;SDS011;4156;50.908;6.974;2023-05-07T11:20:44;2.80;;;1.80;;
8230;SDS011;4156;50.908;6.974;2023-05-07T11:26:05;2.87;;;1.60;;
8230;SDS011;4156;50.908;6.974;2023-05-07T11:28:41;1.73;;;1.63;;
8230;SDS011;4156;50.908;6.974;2023-05-07T11:31:07;1.70;;;1.60;;
8230;SDS011;4156;50.908;6.974;2023-05-07T11:33:34;1.90;;;1.60;;
8230;SDS011;4156;50.908;6.974;2023-05-07T11:36:02;5.80;;;1.83;;
8230;SDS011;4156;50.908;6.974;2023-05-07T11:38:28;2.10;;;1.60;;
8230;SDS011;4156;50.908;6.974;2023-05-07T11:41:00;2.57;;;1.60;;
8230;SDS011;4156;50.908;6.974;2023-05-07T11:43:27;1.67;;;1.57;;
8230;SDS011;4156;50.908;6.974;2023-05-07T11:45:53;1.73;;;1.63;;
8230;SDS011;4156;50.908;6.974;2023-05-07T11:48:19;2.37;;;1.80;;
8230;SDS011;4156;50.908;6.974;2023-05-07T11:50:50;1.60;;;1.50;;
8230;SDS011;4156;50.908;6.974;2023-05-07T11:53:24;2.00;;;1.70;;
8230;SDS011;4156;50.908;6.974;2023-05-07T11:55:57;1.60;;;1.50;;
8230;SDS011;4156;50.908;6.974;2023-05-07T11:58:23;2.17;;;1.53;;
8230;SDS011;4156;50.908;6.974;2023-05-07T12:00:53;1.97;;;1.53;;
8230;SDS011;4156;50.908;6.974;2023-05-07T12:03:19;1.90;;;1.60;;
8230;SDS011;4156;50.908;6.974;2023-05-07T12:05:46;1.50;;;1.40;;
8230;SDS011;4156;50.908;6.974;2023-05-07T12:08:15;3.13;;;1.80;;
8230;SDS011;4156;50.908;6.974;2023-05-07T12:10:44;1.80;;;1.70;;
8230;SDS011;4156;50.908;6.974;2023-05-07T12:13:19;1.60;;;1.50;;
8230;SDS011;4156;50.908;6.974;2023-05-07T12:15:54;1.67;;;1.50;;
8230;SDS011;4156;50.908;6.974;2023-05-07T12:18:21;2.13;;;1.50;;
8230;SDS011;4156;50.908;6.974;2023-05-07T12:20:47;2.77;;;1.97;;
8230;SDS011;4156;50.908;6.974;2023-05-07T12:23:13;1.60;;;1.50;;
8230;SDS011;4156;50.908;6.974;2023-05-07T12:25:40;1.53;;;1.43;;
8230;SDS011;4156;50.908;6.974;2023-05-07T12:28:13;2.87;;;1.80;;
8230;SDS011;4156;50.908;6.974;2023-05-07T12:30:46;2.40;;;1.50;;
8230;SDS011;4156;50.908;6.974;2023-05-07T12:33:16;1.70;;;1.60;;
8230;SDS011;4156;50.908;6.974;2023-05-07T12:35:43;1.60;;;1.50;;
8230;SDS011;4156;50.908;6.974;2023-05-07T12:38:09;1.60;;;1.50;;
8230;SDS011;4156;50.908;6.974;2023-05-07T12:40:36;1.83;;;1.60;;
8230;SDS011;4156;50.908;6.974;2023-05-07T12:43:03;1.80;;;1.70;;
8230;SDS011;4156;50.908;6.974;2023-05-07T12:45:29;2.17;;;1.60;;
8230;SDS011;4156;50.908;6.974;2023-05-07T12:47:54;1.70;;;1.60;;
8230;SDS011;4156;50.908;6.974;2023-05-07T12:50:20;1.53;;;1.43;;
8230;SDS011;4156;50.908;6.974;2023-05-07T12:52:47;2.23;;;1.70;;
8230;SDS011;4156;50.908;6.974;2023-05-07T12:55:16;2.80;;;1.80;;
8230;SDS011;4156;50.908;6.974;2023-05-07T12:57:42;1.47;;;1.30;;
8230;SDS011;4156;50.908;6.974;2023-05-07T13:00:12;2.90;;;1.80;;
8230;SDS011;4156;50.908;6.974;2023-05-07T13:02:39;1.90;;;1.60;;
8230;SDS011;4156;50.908;6.974;2023-05-07T13:05:06;1.60;;;1.50;;
8230;SDS011;4156;50.908;6.974;2023-05-07T13:07:32;2.10;;;1.50;;
8230;SDS011;4156;50.908;6.974;2023-05-07T13:09:57;1.50;;;1.40;;
8230;SDS011;4156;50.908;6.974;2023-05-07T13:12:23;2.10;;;1.50;;
8230;SDS011;4156;50.908;6.974;2023-05-07T13:14:48;2.33;;;1.43;;
8230;SDS011;4156;50.908;6.974;2023-05-07T13:17:14;1.70;;;1.60;;
8230;SDS011;4156;50.908;6.974;2023-05-07T13:19:39;2.37;;;1.50;;
8230;SDS011;4156;50.908;6.974;2023-05-07T13:22:05;2.10;;;1.60;;
8230;SDS011;4156;50.908;6.974;2023-05-07T13:24:30;2.10;;;1.63;;
8230;SDS011;4156;50.908;6.974;2023-05-07T13:26:56;1.67;;;1.50;;
8230;SDS011;4156;50.908;6.974;2023-05-07T13:29:21;2.13;;;1.60;;
8230;SDS011;4156;50.908;6.974;2023-05-07T13:31:53;1.70;;;1.60;;
8230;SDS011;4156;50.908;6.974;2023-05-07T13:34:19;1.83;;;1.63;;
8230;SDS011;4156;50.908;6.974;2023-05-07T13:36:45;2.23;;;1.70;;
8230;SDS011;4156;50.908;6.974;2023-05-07T13:39:10;2.37;;;2.00;;
8230;SDS011;4156;50.908;6.974;2023-05-07T13:41:36;1.97;;;1.77;;
8230;SDS011;4156;50.908;6.974;2023-05-07T13:44:01;1.90;;;1.70;;
8230;SDS011;4156;50.908;6.974;2023-05-07T13:46:27;2.37;;;1.70;;
8230;SDS011;4156;50.908;6.974;2023-05-07T13:48:52;3.00;;;1.70;;
8230;SDS011;4156;50.908;6.974;2023-05-07T13:51:18;1.63;;;1.53;;
8230;SDS011;4156;50.908;6.974;2023-05-07T13:53:43;2.73;;;1.70;;
8230;SDS011;4156;50.908;6.974;2023-05-07T13:56:09;1.83;;;1.60;;
8230;SDS011;4156;50.908;6.974;2023-05-07T13:58:35;2.67;;;1.80;;
8230;SDS011;4156;50.908;6.974;2023-05-07T14:01:01;2.53;;;1.70;;
8230;SDS011;4156;50.908;6.974;2023-05-07T14:03:27;2.00;;;1.70;;
8230;SDS011;4156;50.908;6.974;2023-05-07T14:05:52;2.07;;;1.87;;
8230;SDS011;4156;50.908;6.974;2023-05-07T14:08:18;2.10;;;1.70;;
8230;SDS011;4156;50.908;6.974;2023-05-07T14:10:44;2.77;;;2.17;;
8230;SDS011;4156;50.908;6.974;2023-05-07T14:13:11;3.90;;;2.17;;
8230;SDS011;4156;50.908;6.974;2023-05-07T14:15:36;2.50;;;1.63;;
8230;SDS011;4156;50.908;6.974;2023-05-07T14:18:02;2.53;;;1.63;;
8230;SDS011;4156;50.908;6.974;2023-05-07T14:20:28;3.07;;;1.80;;
8230;SDS011;4156;50.908;6.974;2023-05-07T14:22:55;2.20;;;1.80;;
8230;SDS011;4156;50.908;6.974;2023-05-07T14:25:20;2.20;;;1.73;;
8230;SDS011;4156;50.908;6.974;2023-05-07T14:27:46;1.60;;;1.50;;
8230;SDS011;4156;50.908;6.974;2023-05-07T14:30:12;2.67;;;2.00;;
8230;SDS011;4156;50.908;6.974;2023-05-07T14:32:37;1.80;;;1.67;;
8230;SDS011;4156;50.908;6.974;2023-05-07T14:35:03;2.60;;;1.90;;
8230;SDS011;4156;50.908;6.974;2023-05-07T14:37:29;2.37;;;1.90;;
8230;SDS011;4156;50.908;6.974;2023-05-07T14:39:55;2.20;;;2.00;;
8230;SDS011;4156;50.908;6.974;2023-05-07T14:42:20;2.13;;;1.80;;
8230;SDS011;4156;50.908;6.974;2023-05-07T14:44:46;2.47;;;2.17;;
8230;SDS011;4156;50.908;6.974;2023-05-07T14:47:13;4.37;;;1.90;;
8230;SDS011;4156;50.908;6.974;2023-05-07T14:49:38;2.50;;;1.87;;
8230;SDS011;4156;50.908;6.974;2023-05-07T14:52:05;2.33;;;1.87;;
8230;SDS011;4156;50.908;6.974;2023-05-07T14:54:33;7.03;;;2.20;;
8230;SDS011;4156;50.908;6.974;2023-05-07T14:57:00;27.83;;;5.97;;
8230;SDS011;4156;50.908;6.974;2023-05-07T14:59:26;48.30;;;10.80;;
8230;SDS011;4156;50.908;6.974;2023-05-07T15:01:52;8.90;;;5.10;;
8230;SDS011;4156;50.908;6.974;2023-05-07T15:04:17;14.10;;;4.70;;
8230;SDS011;4156;50.908;6.974;2023-05-07T15:06:43;6.13;;;4.60;;
8230;SDS011;4156;50.908;6.974;2023-05-07T15:09:08;7.60;;;4.93;;
8230;SDS011;4156;50.908;6.974;2023-05-07T15:11:34;10.00;;;5.67;;
8230;SDS011;4156;50.908;6.974;2023-05-07T15:13:59;11.73;;;5.50;;
8230;SDS011;4156;50.908;6.974;2023-05-07T15:16:25;6.03;;;5.07;;
8230;SDS011;4156;50.908;6.974;2023-05-07T15:18:51;6.83;;;5.37;;
8230;SDS011;4156;50.908;6.974;2023-05-07T15:21:16;6.73;;;5.70;;
8230;SDS011;4156;50.908;6.974;2023-05-07T15:23:42;8.87;;;6.07;;
8230;SDS011;4156;50.908;6.974;2023-05-07T15:26:09;7.87;;;6.20;;
8230;SDS011;4156;50.908;6.974;2023-05-07T15:28:42;7.07;;;5.53;;
8230;SDS011;4156;50.908;6.974;2023-05-07T15:31:14;6.77;;;6.07;;
8230;SDS011;4156;50.908;6.974;2023-05-07T15:33:41;9.20;;;6.10;;